Latest Coastal Weather Observations for Walpole North

IDW60701

Issued at 3:53 pm WST Friday 22 September 2017 (issued every 10 minutes, with the page automatically refreshed every 10 minutes)

About coastal observations | Map of coastal stations | Coastal observations for WA | Marine services | Other Formats
Station Details ID: 009998 Name: NORTH WALPOLE Lat: -34.95 Lon: 116.72 Height: 73.0 m
Data from the previous 72 hours. | See also: Recent months at Walpole North
Date/Time
WST
Temp
°C
Wind Pressure Rain since
9am
mm
Weather Cloud Vis
km
Sea
Height
m
Swell
Dir  Spd
kts
Gust
kts
hPa Trend Height
m
Period
s
Dir
22/03:30pm 12.9 WSW 15 23 997.7 - 9.6 - - - - - - -
22/03:00pm 14.8 W 18 28 996.6 - 9.6 - - - - - - -
22/02:34pm 14.3 W 15 27 996.2 - 9.6 - - - - - - -
22/02:30pm 14.1 W 14 27 996.1 - 9.6 - - - - - - -
22/02:17pm 13.4 W 15 30 996.0 - 9.6 - - - - - - -
22/02:00pm 12.5 W 12 20 995.6 - 9.6 - - - - - - -
22/01:30pm 13.9 WNW 17 26 995.1 - 9.2 - - - - - - -
22/01:00pm 14.6 W 17 29 994.8 - 9.2 - - - - - - -
22/12:30pm 14.9 WNW 18 29 994.5 - 8.6 - - - - - - -
22/12:00pm 13.9 WNW 16 26 994.6 - 8.6 - - - - - - -
22/11:57am 14.4 WNW 16 26 994.6 - 8.6 - - - - - - -
22/11:30am 12.8 WNW 15 23 994.7 - 8.6 - - - - - - -
22/11:00am 12.1 WNW 9 15 994.9 - 8.6 - - - - - - -
22/10:30am 10.4 WNW 12 27 995.2 - 8.4 - - - - - - -
22/10:23am 10.7 WNW 15 27 995.2 - 8.2 - - - - - - -
22/10:00am 11.9 NW 14 21 994.4 - 2.0 - - - - - - -
22/09:30am 11.7 NW 11 16 994.4 - 1.6 - - - - - - -
22/09:00am 11.6 NW 15 21 994.9 - 17.2 Rain - - - - - -
22/08:59am 11.6 NW 15 21 994.9 - 17.2 - - - - - - -
22/08:30am 11.5 NW 7 10 994.8 - 16.6 - - - - - - -
22/08:00am 11.2 NW 15 37 995.4 - 15.8 - - - - - - -
22/07:59am 11.4 NW 15 37 995.2 - 15.8 - - - - - - -
22/07:30am 12.7 NW 14 20 994.8 - 14.8 - - - - - - -
22/07:00am 12.2 NW 10 16 994.9 - 14.8 - - - - - - -
22/06:30am 12.0 NNW 8 14 995.1 - 14.8 - - - - - - -
22/06:00am 11.7 NW 12 17 995.2 - 14.8 - - - - - - -
22/05:30am 11.9 NW 12 16 995.6 - 14.8 - - - - - - -
22/05:00am 11.8 NW 13 16 995.9 - 14.8 - - - - - - -
22/04:30am 12.0 NW 13 20 996.0 - 14.8 - - - - - - -
22/04:00am 12.1 NW 14 19 996.2 - 14.8 - - - - - - -
22/03:30am 12.0 NW 12 18 996.6 - 14.8 - - - - - - -
22/03:00am 12.0 NW 15 21 996.5 - 14.8 Recent precip. - - - - - -
22/02:30am 12.1 NW 15 21 997.1 - 14.8 - - - - - - -
22/02:00am 12.5 NW 15 25 997.1 - 14.6 - - - - - - -
22/01:59am 12.5 NW 15 25 996.9 - 14.6 - - - - - - -
22/01:30am 12.4 NW 13 19 997.3 - 14.6 - - - - - - -
22/01:00am 12.7 NW 17 27 997.8 - 14.6 - - - - - - -
22/12:30am 12.4 NW 15 20 998.0 - 14.4 - - - - - - -
22/12:00am 12.5 NW 17 25 998.3 - 14.4 Recent precip. - - - - - -
 
Date/Time
WST
Temp
°C
Wind Pressure Rain since
9am
mm
Weather Cloud Vis
km
Sea
Height
m
Swell
Dir  Spd
kts
Gust
kts
hPa Trend Height
m
Period
s
Dir
21/11:37pm 12.8 NW 15 26 998.5 - 14.4 - - - - - - -
21/11:30pm 13.0 NW 15 23 998.6 - 14.2 - - - - - - -
21/11:00pm 13.1 NW 15 22 998.8 - 14.2 - - - - - - -
21/10:35pm 13.2 NW 15 25 998.8 - 14.2 - - - - - - -
21/10:30pm 13.1 NW 13 21 999.0 - 14.2 - - - - - - -
21/10:00pm 13.1 NW 13 20 999.3 - 14.2 - - - - - - -
21/09:34pm 13.2 NW 16 28 999.2 - 14.2 - - - - - - -
21/09:30pm 13.4 NW 16 21 999.4 - 14.2 - - - - - - -
21/09:00pm 13.2 NW 14 19 999.4 - 14.2 - - - - - - -
21/08:30pm 13.2 NW 15 23 999.7 - 14.2 - - - - - - -
21/08:00pm 13.1 NW 15 19 999.8 - 14.2 - - - - - - -
21/07:30pm 13.0 NW 16 23 999.5 - 14.2 - - - - - - -
21/07:00pm 13.3 NW 17 27 999.2 - 14.2 - - - - - - -
21/06:32pm 13.5 NW 19 29 999.0 - 14.2 - - - - - - -
21/06:30pm 13.6 NW 20 29 998.9 - 14.2 - - - - - - -
21/06:08pm 14.1 NW 15 25 998.5 - 14.2 - - - - - - -
21/06:00pm 13.8 NW 16 25 998.5 - 14.2 - - - - - - -
21/05:36pm 14.6 WNW 17 27 998.7 - 14.2 - - - - - - -
21/05:30pm 15.3 WNW 16 24 998.4 - 14.2 - - - - - - -
21/05:01pm 15.3 WNW 15 25 998.1 - 14.2 - - - - - - -
21/05:00pm 15.4 WNW 14 23 998.2 - 14.2 - - - - - - -
21/04:30pm 14.9 WNW 18 29 998.2 - 14.2 - - - - - - -
21/04:00pm 14.1 WNW 20 33 998.1 - 13.6 - - - - - - -
21/03:46pm 16.2 WNW 20 37 997.0 - 10.8 - - - - - - -
21/03:30pm 15.7 WNW 17 27 997.4 - 10.8 - - - - - - -
21/03:00pm 16.0 WNW 17 27 997.1 - 10.8 Recent precip. - - - - - -
21/02:30pm 14.9 WNW 18 29 997.0 - 10.8 - - - - - - -
21/02:00pm 17.0 WNW 21 36 995.9 - 9.4 - - - - - - -
21/01:30pm 16.4 WNW 19 35 996.5 - 9.4 - - - - - - -
21/01:00pm 15.4 WNW 17 32 996.1 - 9.4 - - - - - - -
21/12:30pm 15.0 WNW 21 41 995.7 - 9.2 - - - - - - -
21/12:29pm 15.4 WNW 20 37 995.9 - 9.2 - - - - - - -
21/12:17pm 16.0 WNW 17 27 995.9 - 8.8 - - - - - - -
21/12:00pm 15.5 NW 16 23 995.8 - 8.8 Rain - - - - - -
21/11:30am 14.9 WNW 12 24 996.0 - 8.6 - - - - - - -
21/11:00am 14.6 W 13 27 996.8 - 7.2 - - - - - - -
21/10:55am 14.4 WNW 11 27 996.4 - 4.2 - - - - - - -
21/10:30am 13.7 SSW 5 9 995.8 - 1.2 - - - - - - -
21/10:00am 16.9 NW 15 24 996.1 - 0.4 - - - - - - -
21/09:30am 17.6 NW 21 36 995.5 - 0.0 - - - - - - -
21/09:00am 16.8 NW 18 30 996.1 - 27.6 Recent precip. - - - - - -
21/08:57am 16.6 NW 16 30 996.2 - 27.6 - - - - - - -
21/08:55am 16.4 NW 14 30 996.2 - 27.6 - - - - - - -
21/08:30am 14.7 N 6 10 996.8 - 27.0 - - - - - - -
21/08:00am 13.8 NE 7 12 997.2 - 24.2 - - - - - - -
21/07:30am 13.3 ENE 3 7 998.7 - 24.2 - - - - - - -
21/07:00am 13.0 N 6 11 999.6 - 24.2 - - - - - - -
21/06:30am 13.0 NNW 4 6 999.7 - 24.2 - - - - - - -
21/06:00am 13.1 WNW 3 5 1000.8 - 22.8 Rain - - - - - -
21/05:30am 13.2 WSW 9 16 1001.4 - 20.4 - - - - - - -
21/05:00am 14.5 WSW 7 11 1000.7 - 13.0 - - - - - - -
21/04:30am 14.7 N 6 11 1000.1 - 11.0 - - - - - - -
21/04:00am 14.7 NNW 6 12 1000.7 - 3.2 - - - - - - -
21/03:30am 14.8 NNW 6 12 1001.4 - 1.8 - - - - - - -
21/03:00am 14.8 NNW 5 11 1002.1 - 1.2 - - - - - - -
21/02:30am 14.7 NNW 7 11 1002.8 - 1.2 - - - - - - -
21/02:00am 14.5 NNW 8 13 1003.3 - 1.2 - - - - - - -
21/01:30am 14.2 NNW 6 9 1004.2 - 1.2 - - - - - - -
21/01:00am 14.1 NNW 6 11 1004.3 - 1.2 - - - - - - -
21/12:30am 14.3 NW 9 12 1004.9 - 1.2 - - - - - - -
21/12:00am 14.4 NW 8 12 1004.9 - 1.2 - - - - - - -
 
Date/Time
WST
Temp
°C
Wind Pressure Rain since
9am
mm
Weather Cloud Vis
km
Sea
Height
m
Swell
Dir  Spd
kts
Gust
kts
hPa Trend Height
m
Period
s
Dir
20/11:30pm 14.5 NNW 8 13 1005.4 - 1.2 - - - - - - -
20/11:00pm 14.4 NNW 8 14 1005.9 - 1.2 - - - - - - -
20/10:30pm 14.7 NW 10 15 1006.3 - 1.2 - - - - - - -
20/10:00pm 14.7 NW 10 16 1006.6 - 1.2 - - - - - - -
20/09:30pm 14.6 NNW 9 14 1006.9 - 1.2 - - - - - - -
20/09:00pm 14.3 NW 8 15 1007.2 - 1.2 - - - - - - -
20/08:30pm 14.4 NNW 6 13 1007.3 - 1.2 - - - - - - -
20/08:00pm 13.9 N 6 11 1007.5 - 1.2 - - - - - - -
20/07:30pm 14.0 NNW 6 8 1007.9 - 1.2 - - - - - - -
20/07:00pm 14.2 WNW 4 8 1008.0 - 1.2 - - - - - - -
20/06:30pm 14.3 NW 7 10 1008.1 - 1.2 - - - - - - -
20/06:00pm 16.1 NW 10 17 1007.9 - 0.0 - - - - - - -
20/05:30pm 16.9 NNW 5 7 1007.5 - 0.0 - - - - - - -
20/05:00pm 17.6 NW 11 17 1007.9 - 0.0 - - - - - - -
20/04:30pm 17.8 NW 7 9 1007.9 - 0.0 - - - - - - -
20/04:00pm 17.9 NW 9 12 1008.0 - 0.0 - - - - - - -
20/03:30pm 18.1 NW 9 13 1008.3 - 0.0 - - - - - - -
20/03:00pm 18.6 NW 9 14 1008.6 - 0.0 - - - - - - -
20/02:30pm 17.9 WNW 9 13 1009.0 - 0.0 - - - - - - -
20/02:00pm 18.2 W 8 14 1009.2 - 0.0 - - - - - - -
20/01:30pm 18.2 W 9 13 1009.2 - 0.0 - - - - - - -
20/01:00pm 17.3 W 10 16 1009.4 - 0.0 - - - - - - -
20/12:30pm 17.4 WNW 12 18 1009.6 - 0.0 - - - - - - -
20/12:00pm 15.9 NW 11 16 1010.1 - 0.0 - - - - - - -
20/11:30am 17.5 WNW 9 18 1010.2 - 0.0 - - - - - - -
20/11:00am 15.3 NW 10 16 1010.6 - 0.0 - - - - - - -
20/10:30am 15.8 WNW 9 13 1010.7 - 0.0 - - - - - - -
20/10:00am 15.3 NW 6 10 1011.1 - 0.0 - - - - - - -
20/09:30am 14.7 NW 8 10 1011.5 - 0.0 - - - - - - -
20/09:00am 14.2 NW 8 10 1011.4 - 2.2 - - - - - - -
20/08:30am 13.3 NW 5 7 1011.4 - 2.2 - - - - - - -
20/08:00am 12.7 WNW 4 6 1011.4 - 2.2 - - - - - - -
20/07:30am 11.8 NW 5 7 1011.2 - 2.2 - - - - - - -
20/07:00am 11.5 WNW 6 8 1011.3 - 2.2 - - - - - - -
20/06:30am 11.3 NW 6 9 1011.0 - 2.2 - - - - - - -
20/06:00am 11.4 NNW 9 13 1010.9 - 1.8 - - - - - - -
20/05:30am 11.6 WNW 11 15 1010.8 - 1.8 - - - - - - -
20/05:00am 11.6 NNW 8 11 1010.3 - 1.8 - - - - - - -
20/04:30am 12.0 NW 8 11 1010.3 - 1.8 - - - - - - -
20/04:00am 12.2 NW 9 14 1010.1 - 1.8 - - - - - - -
20/03:30am 12.4 NNW 9 13 1009.9 - 1.8 - - - - - - -
20/03:00am 12.4 NNW 9 13 1009.8 - 1.8 - - - - - - -
20/02:30am 12.6 NNW 9 13 1010.1 - 1.8 - - - - - - -
20/02:00am 12.4 NNW 7 10 1010.3 - 1.8 - - - - - - -
20/01:30am 12.4 NNW 8 11 1010.6 - 1.8 - - - - - - -
20/01:00am 12.4 NNW 7 8 1010.7 - 1.8 - - - - - - -
20/12:30am 12.9 NW 6 8 1011.2 - 1.8 - - - - - - -
20/12:00am 13.0 WNW 7 10 1011.4 - 1.8 - - - - - - -
 
Date/Time
WST
Temp
°C
Wind Pressure Rain since
9am
mm
Weather Cloud Vis
km
Sea
Height
m
Swell
Dir  Spd
kts
Gust
kts
hPa Trend Height
m
Period
s
Dir
19/11:30pm 13.2 WNW 7 9 1011.5 - 1.8 - - - - - - -
19/11:00pm 13.5 NW 8 13 1011.9 - 1.8 - - - - - - -
19/10:30pm 13.8 WNW 8 12 1012.0 - 1.8 - - - - - - -
19/10:00pm 14.2 NW 8 12 1012.1 - 1.8 - - - - - - -
19/09:30pm 14.0 WNW 6 8 1012.6 - 1.8 - - - - - - -
19/09:00pm 14.0 WNW 7 9 1012.5 - 1.8 - - - - - - -
19/08:30pm 14.1 WNW 8 10 1012.3 - 1.8 - - - - - - -
19/08:00pm 14.3 NW 8 11 1012.2 - 1.8 - - - - - - -
19/07:30pm 14.0 WNW 7 10 1012.1 - 1.8 - - - - - - -
19/07:00pm 14.4 WNW 6 10 1012.0 - 1.8 - - - - - - -
19/06:30pm 14.7 WNW 10 17 1011.7 - 1.8 - - - - - - -
19/06:00pm 15.1 WNW 8 14 1011.7 - 1.8 - - - - - - -
19/05:30pm 15.4 WNW 11 19 1011.5 - 1.8 - - - - - - -
19/05:00pm 15.8 W 15 22 1011.3 - 1.8 - - - - - - -
19/04:30pm 16.2 W 15 26 1011.2 - 1.8 - - - - - - -
19/04:23pm 16.3 W 15 25 1011.3 - 1.8 - - - - - - -
19/04:00pm 16.2 W 15 22 1011.1 - 1.8 - - - - - - -

Other Formats:

Comma delimited format used in spreadsheet applications
http://www.bom.gov.au/fwo/IDW60701/IDW60701.95647.axf

JavaScript Object Notation format (JSON) in row-major order
http://www.bom.gov.au/fwo/IDW60701/IDW60701.95647.json